createdAt,value
2017-10-01T00:00:21.064Z,100986.03
2017-10-01T00:02:49.375Z,100987.05
2017-10-01T00:05:18.453Z,100988.48
2017-10-01T00:07:46.767Z,100990.43
2017-10-01T00:10:15.073Z,100990.23
2017-10-01T00:12:43.393Z,100988.41
2017-10-01T00:15:12.453Z,100985.27
2017-10-01T00:17:40.794Z,100983.43
2017-10-01T00:20:09.085Z,100994.32
2017-10-01T00:22:37.418Z,100990.22
2017-10-01T00:25:05.728Z,100993.27
2017-10-01T00:27:34.028Z,100999.42
2017-10-01T00:30:03.118Z,100998.20
2017-10-01T00:32:31.408Z,101002.30
2017-10-01T00:34:59.762Z,100998.88
2017-10-01T00:37:28.062Z,101003.56
2017-10-01T00:39:56.373Z,100996.95
2017-10-01T00:42:24.669Z,101007.16
2017-10-01T00:44:53.749Z,101012.01
2017-10-01T00:47:22.825Z,101011.39
2017-10-01T00:49:51.155Z,101016.92
2017-10-01T00:52:19.461Z,101012.49
2017-10-01T00:54:47.753Z,101016.23
2017-10-01T00:57:16.070Z,101018.88
2017-10-01T00:59:44.374Z,101015.66
2017-10-01T01:02:12.706Z,101011.77
2017-10-01T01:04:41.787Z,101017.56
2017-10-01T01:07:10.094Z,101018.16
2017-10-01T01:09:39.169Z,101011.36
2017-10-01T01:12:07.487Z,101012.53
2017-10-01T01:14:35.786Z,101005.23
2017-10-01T01:17:04.098Z,101019.27
2017-10-01T01:19:32.409Z,101021.05
2017-10-01T01:22:00.722Z,101027.05
2017-10-01T01:24:29.785Z,101024.94
2017-10-01T01:26:58.101Z,101023.91
2017-10-01T01:29:26.417Z,101026.64
2017-10-01T01:31:55.492Z,101028.66
2017-10-01T01:34:23.809Z,101035.99
2017-10-01T01:36:52.110Z,101034.95
2017-10-01T01:39:20.422Z,101037.13
2017-10-01T01:41:48.717Z,101037.95
2017-10-01T01:44:17.801Z,101034.69
2017-10-01T01:46:46.110Z,101030.92
2017-10-01T01:49:14.447Z,101036.55
2017-10-01T01:51:42.745Z,101043.56
2017-10-01T01:54:11.838Z,101048.94
2017-10-01T01:56:40.901Z,101045.62
2017-10-01T01:59:09.205Z,101056.42
2017-10-01T02:01:37.522Z,101064.20
2017-10-01T02:04:05.820Z,101061.23
2017-10-01T02:06:34.139Z,101063.54
2017-10-01T02:09:03.211Z,101064.34
2017-10-01T02:11:31.529Z,101070.44
2017-10-01T02:14:00.590Z,101071.27
2017-10-01T02:16:28.919Z,101071.33
2017-10-01T02:18:57.238Z,101081.36
2017-10-01T02:21:25.554Z,101048.72
2017-10-01T02:23:53.858Z,101080.53
2017-10-01T02:26:22.174Z,101091.63
2017-10-01T02:28:50.481Z,101096.60
2017-10-01T02:31:19.579Z,101095.24
2017-10-01T02:33:48.700Z,101100.35
2017-10-01T02:36:17.014Z,101106.16
2017-10-01T02:38:45.333Z,101106.22
2017-10-01T02:41:13.636Z,101109.42
2017-10-01T02:43:41.949Z,101103.84
2017-10-01T02:46:10.249Z,101099.34
2017-10-01T02:48:39.335Z,101112.02
2017-10-01T02:51:07.647Z,101111.67
2017-10-01T02:53:35.971Z,101117.06
2017-10-01T02:56:04.284Z,101119.44
2017-10-01T02:58:33.371Z,101125.14
2017-10-01T03:01:02.442Z,101124.13
2017-10-01T03:03:30.751Z,101123.11
2017-10-01T03:05:59.814Z,101121.14
2017-10-01T03:08:28.150Z,101122.41
2017-10-01T03:10:56.460Z,101128.15
2017-10-01T03:13:24.761Z,101136.33
2017-10-01T03:15:53.069Z,101138.86
2017-10-01T03:18:21.373Z,101140.35
2017-10-01T03:20:49.685Z,101139.47
2017-10-01T03:23:17.989Z,101133.77
2017-10-01T03:25:47.078Z,101133.67
2017-10-01T03:28:16.142Z,101144.19
2017-10-01T03:30:44.475Z,101146.86
2017-10-01T03:33:12.786Z,101141.59
2017-10-01T03:35:41.122Z,101139.88
2017-10-01T03:38:09.445Z,101145.20
2017-10-01T03:40:37.760Z,101146.50
2017-10-01T03:43:06.838Z,101149.72
2017-10-01T03:45:35.156Z,101154.16
2017-10-01T03:48:03.468Z,101162.21
2017-10-01T03:50:31.773Z,101160.09
2017-10-01T03:53:00.102Z,101163.70
2017-10-01T03:55:28.406Z,101168.27
2017-10-01T03:57:56.717Z,101171.03
2017-10-01T04:00:25.805Z,101170.16
2017-10-01T04:02:54.113Z,101169.19
2017-10-01T04:05:22.421Z,101173.94
2017-10-01T04:07:50.734Z,101179.43
2017-10-01T04:10:19.825Z,101180.88
2017-10-01T04:12:48.169Z,101182.05
2017-10-01T04:15:16.483Z,101181.56
2017-10-01T04:17:44.789Z,101189.67
2017-10-01T04:20:13.109Z,101195.58
2017-10-01T04:22:41.418Z,101188.65
2017-10-01T04:25:09.742Z,101194.49
2017-10-01T04:27:38.070Z,101198.53
2017-10-01T04:30:06.390Z,101198.77
2017-10-01T04:32:34.693Z,101197.32
2017-10-01T04:35:03.061Z,101198.80
2017-10-01T04:37:31.368Z,101210.75
2017-10-01T04:39:59.670Z,101217.05
2017-10-01T04:42:28.756Z,101221.13
2017-10-01T04:44:57.862Z,101228.30
2017-10-01T04:47:26.965Z,101232.29
2017-10-01T04:49:56.030Z,101232.73
2017-10-01T04:52:24.346Z,101237.13
2017-10-01T04:54:52.650Z,101232.66
2017-10-01T04:57:20.970Z,101228.56
2017-10-01T04:59:49.293Z,101234.16
2017-10-01T05:02:17.639Z,101235.30
2017-10-01T05:04:46.719Z,101241.14
2017-10-01T05:07:15.056Z,101237.55
2017-10-01T05:09:43.376Z,101239.54
2017-10-01T05:12:11.685Z,101241.97
2017-10-01T05:14:39.998Z,101241.09
2017-10-01T05:17:09.136Z,101246.33
2017-10-01T05:19:38.217Z,101246.86
2017-10-01T05:22:06.530Z,101247.54
2017-10-01T05:24:34.841Z,101245.94
2017-10-01T05:27:03.148Z,101253.98
2017-10-01T05:29:31.461Z,101252.89
2017-10-01T05:31:59.777Z,101256.91
2017-10-01T05:34:28.121Z,101255.13
2017-10-01T05:36:56.426Z,101263.11
2017-10-01T05:39:25.504Z,101255.98
2017-10-01T05:41:53.860Z,101258.44
2017-10-01T05:44:22.929Z,101258.80
2017-10-01T05:46:51.253Z,101258.64
2017-10-01T05:49:19.558Z,101256.13
2017-10-01T05:51:47.875Z,101267.17
2017-10-01T05:54:17.005Z,101261.94
2017-10-01T05:56:45.334Z,101262.38
2017-10-01T05:59:13.677Z,101264.08
2017-10-01T06:01:41.994Z,101266.93
2017-10-01T06:04:11.077Z,101268.84
2017-10-01T06:06:39.392Z,101275.88
2017-10-01T06:09:07.713Z,101279.70
2017-10-01T06:11:36.045Z,101280.87
2017-10-01T06:14:04.348Z,101280.66
2017-10-01T06:16:32.656Z,101284.94
2017-10-01T06:19:00.988Z,101291.52
2017-10-01T06:21:29.301Z,101291.09
2017-10-01T06:23:57.617Z,101296.21
2017-10-01T06:26:26.687Z,101300.69
2017-10-01T06:28:55.001Z,101302.81
2017-10-01T06:31:23.318Z,101300.80
2017-10-01T06:33:51.653Z,101306.53
2017-10-01T06:36:20.729Z,101309.81
2017-10-01T06:38:49.038Z,101309.05
2017-10-01T06:41:17.353Z,101313.41
2017-10-01T06:43:45.663Z,101318.28
2017-10-01T06:46:13.979Z,101321.31
2017-10-01T06:48:42.294Z,101324.78
2017-10-01T06:51:10.622Z,101325.67
2017-10-01T06:53:38.926Z,101327.94
2017-10-01T06:56:07.245Z,101334.70
2017-10-01T06:58:35.555Z,101337.22
2017-10-01T07:01:03.869Z,101330.33
2017-10-01T07:03:32.189Z,101335.46
2017-10-01T07:06:01.267Z,101336.89
2017-10-01T07:08:29.590Z,101339.91
2017-10-01T07:10:57.898Z,101343.61
2017-10-01T07:13:26.218Z,101342.86
2017-10-01T07:15:55.293Z,101344.57
2017-10-01T07:18:23.614Z,101345.67
2017-10-01T07:20:51.921Z,101356.03
2017-10-01T07:23:20.246Z,101350.83
2017-10-01T07:25:49.319Z,101350.02
2017-10-01T07:28:17.637Z,101353.75
2017-10-01T07:30:45.946Z,101358.14
2017-10-01T07:33:14.282Z,101359.91
2017-10-01T07:35:43.358Z,101363.25
2017-10-01T07:38:11.676Z,101361.89
2017-10-01T07:40:39.997Z,101361.27
2017-10-01T07:43:08.317Z,101362.77
2017-10-01T07:45:36.635Z,101361.94
2017-10-01T07:48:05.718Z,101366.59
2017-10-01T07:50:34.043Z,101370.47
2017-10-01T07:53:03.142Z,101363.90
2017-10-01T07:55:32.273Z,101370.21
2017-10-01T07:58:00.588Z,101373.89
2017-10-01T08:00:28.924Z,101371.55
2017-10-01T08:02:57.235Z,101372.34
2017-10-01T08:05:25.590Z,101374.79
2017-10-01T08:07:53.902Z,101378.22
2017-10-01T08:10:22.229Z,101383.97
2017-10-01T08:12:51.545Z,101381.83
2017-10-01T08:15:19.852Z,101395.72
2017-10-01T08:17:48.174Z,101395.52
2017-10-01T08:20:17.254Z,101395.34
2017-10-01T08:22:46.333Z,101397.97
2017-10-01T08:25:14.645Z,101395.66
2017-10-01T08:27:42.969Z,101398.17
2017-10-01T08:30:11.284Z,101399.82
2017-10-01T08:32:40.380Z,101404.73
2017-10-01T08:35:09.461Z,101408.41
2017-10-01T08:37:37.806Z,101410.14
2017-10-01T08:40:06.128Z,101412.05
2017-10-01T08:42:35.205Z,101407.88
2017-10-01T08:45:03.534Z,101411.81
2017-10-01T08:47:31.845Z,101415.16
2017-10-01T08:50:00.169Z,101414.51
2017-10-01T08:52:28.474Z,101417.78
2017-10-01T08:54:56.796Z,101418.12
2017-10-01T08:57:25.102Z,101416.83
2017-10-01T08:59:53.414Z,101413.68
2017-10-01T09:02:21.721Z,101411.70
2017-10-01T09:04:50.041Z,101407.28
2017-10-01T09:07:18.347Z,101407.78
2017-10-01T09:09:46.688Z,101410.80
2017-10-01T09:12:14.997Z,101414.69
2017-10-01T09:14:43.331Z,101415.56
2017-10-01T09:17:12.412Z,101414.59
2017-10-01T09:19:40.725Z,101422.84
2017-10-01T09:22:09.033Z,101423.92
2017-10-01T09:24:37.348Z,101421.27
2017-10-01T09:27:05.673Z,101413.92
2017-10-01T09:29:33.997Z,101424.10
2017-10-01T09:32:02.327Z,101423.20
2017-10-01T09:34:30.650Z,101418.01
2017-10-01T09:36:59.769Z,101413.29
2017-10-01T09:39:28.841Z,101413.96
2017-10-01T09:41:57.157Z,101414.72
2017-10-01T09:44:25.486Z,101416.27
2017-10-01T09:46:53.802Z,101412.53
2017-10-01T09:49:22.117Z,101418.09
2017-10-01T09:51:50.430Z,101411.39
2017-10-01T09:54:18.748Z,101417.43
2017-10-01T09:56:47.050Z,101414.95
2017-10-01T09:59:15.382Z,101414.91
2017-10-01T10:01:44.457Z,101407.83
2017-10-01T10:04:12.765Z,101412.12
2017-10-01T10:06:41.070Z,101407.36
2017-10-01T10:09:09.401Z,101407.53
2017-10-01T10:11:38.479Z,101412.43
2017-10-01T10:14:06.801Z,101416.69
2017-10-01T10:16:35.117Z,101413.37
2017-10-01T10:19:03.415Z,101415.02
2017-10-01T10:21:31.726Z,101415.80
2017-10-01T10:24:00.030Z,101417.03
2017-10-01T10:26:28.343Z,101418.78
2017-10-01T10:28:56.655Z,101421.33
2017-10-01T10:31:24.969Z,101423.08
2017-10-01T10:33:53.285Z,101421.88
2017-10-01T10:36:22.377Z,101425.96
2017-10-01T10:38:50.698Z,101417.64
2017-10-01T10:41:19.029Z,101424.33
2017-10-01T10:43:47.333Z,101422.14
2017-10-01T10:46:15.637Z,101424.09
2017-10-01T10:48:43.957Z,101426.47
2017-10-01T10:51:12.259Z,101431.41
2017-10-01T10:53:41.350Z,101430.92
2017-10-01T10:56:10.429Z,101432.49
2017-10-01T10:58:38.758Z,101426.95
2017-10-01T11:01:07.067Z,101427.91
2017-10-01T11:03:35.394Z,101429.73
2017-10-01T11:06:03.705Z,101427.25
2017-10-01T11:08:32.031Z,101427.23
2017-10-01T11:11:01.123Z,101415.80
2017-10-01T11:13:30.255Z,101420.61
2017-10-01T11:15:58.573Z,101416.56
2017-10-01T11:18:26.885Z,101407.45
2017-10-01T11:20:55.207Z,101416.60
2017-10-01T11:23:27.229Z,101414.00
2017-10-01T11:25:55.550Z,101407.77
2017-10-01T11:28:23.854Z,101417.63
2017-10-01T11:30:52.165Z,101412.44
2017-10-01T11:33:20.488Z,101415.19
2017-10-01T11:35:49.569Z,101416.32
2017-10-01T11:38:17.891Z,101414.20
2017-10-01T11:40:46.989Z,101416.18
2017-10-01T11:43:16.067Z,101413.67
2017-10-01T11:45:44.360Z,101413.25
2017-10-01T11:48:13.438Z,101417.23
2017-10-01T11:50:41.749Z,101420.21
2017-10-01T11:53:10.097Z,101425.12
2017-10-01T11:55:38.422Z,101426.55
2017-10-01T11:58:06.737Z,101419.16
2017-10-01T12:00:35.041Z,101407.19
2017-10-01T12:03:03.353Z,101413.02
2017-10-01T12:05:31.659Z,101414.80
2017-10-01T12:07:59.969Z,101418.19
2017-10-01T12:10:28.279Z,101420.67
2017-10-01T12:12:56.593Z,101418.20
2017-10-01T12:15:24.902Z,101411.23
2017-10-01T12:17:53.980Z,101420.09
2017-10-01T12:20:22.285Z,101414.94
2017-10-01T12:22:51.390Z,101415.19
2017-10-01T12:25:19.718Z,101412.80
2017-10-01T12:27:48.029Z,101412.78
2017-10-01T12:30:17.117Z,101415.69
2017-10-01T12:32:45.423Z,101417.16
2017-10-01T12:35:13.737Z,101421.30
2017-10-01T12:37:42.069Z,101422.31
2017-10-01T12:40:10.393Z,101423.00
2017-10-01T12:42:39.454Z,101416.59
2017-10-01T12:45:07.762Z,101420.25
2017-10-01T12:47:36.061Z,101419.38
2017-10-01T12:50:04.365Z,101426.56
2017-10-01T12:52:33.446Z,101430.52
2017-10-01T12:55:02.613Z,101430.31
2017-10-01T12:57:30.923Z,101425.96
2017-10-01T12:59:59.997Z,101430.94
2017-10-01T13:02:28.308Z,101424.16
2017-10-01T13:04:56.614Z,101423.82
2017-10-01T13:07:24.929Z,101426.48
2017-10-01T13:09:53.243Z,101426.03
2017-10-01T13:12:21.561Z,101417.05
2017-10-01T13:14:49.860Z,101427.52
2017-10-01T13:17:18.169Z,101424.99
2017-10-01T13:19:46.488Z,101429.86
2017-10-01T13:22:14.805Z,101425.55
2017-10-01T13:24:43.120Z,101429.86
2017-10-01T13:27:11.449Z,101428.28
2017-10-01T13:29:39.749Z,101429.72
2017-10-01T13:32:08.824Z,101425.55
2017-10-01T13:34:37.141Z,101413.53
2017-10-01T13:37:05.437Z,101424.20
2017-10-01T13:39:33.754Z,101419.66
2017-10-01T13:42:02.067Z,101426.94
2017-10-01T13:44:31.147Z,101429.02
2017-10-01T13:47:00.284Z,101428.44
2017-10-01T13:49:28.617Z,101427.73
2017-10-01T13:51:56.934Z,101431.30
2017-10-01T13:54:25.262Z,101421.89
2017-10-01T13:56:53.594Z,101410.53
2017-10-01T13:59:21.913Z,101405.30
2017-10-01T14:01:50.248Z,101401.06
2017-10-01T14:04:18.549Z,101406.02
2017-10-01T14:06:46.869Z,101405.50
2017-10-01T14:09:15.941Z,101401.23
2017-10-01T14:11:44.370Z,101402.34
2017-10-01T14:14:12.678Z,101400.22
2017-10-01T14:16:41.756Z,101398.82
2017-10-01T14:19:10.062Z,101397.59
2017-10-01T14:21:38.374Z,101400.09
2017-10-01T14:24:07.449Z,101392.11
2017-10-01T14:26:35.751Z,101390.04
2017-10-01T14:29:04.831Z,101387.75
2017-10-01T14:31:33.906Z,101391.23
2017-10-01T14:34:02.220Z,101397.78
2017-10-01T14:36:30.537Z,101395.58
2017-10-01T14:38:58.870Z,101403.55
2017-10-01T14:41:27.937Z,101391.73
2017-10-01T14:43:56.241Z,101391.30
2017-10-01T14:46:25.321Z,101391.61
2017-10-01T14:48:53.630Z,101382.40
2017-10-01T14:51:21.954Z,101389.87
2017-10-01T14:53:50.261Z,101384.08
2017-10-01T14:56:19.345Z,101388.29
2017-10-01T14:58:48.434Z,101386.96
2017-10-01T15:01:16.766Z,101389.30
2017-10-01T15:03:45.079Z,101386.01
2017-10-01T15:06:13.398Z,101376.49
2017-10-01T15:08:42.477Z,101374.83
2017-10-01T15:11:11.577Z,101375.53
2017-10-01T15:13:40.638Z,101372.28
2017-10-01T15:16:08.970Z,101374.98
2017-10-01T15:18:37.289Z,101374.86
2017-10-01T15:21:05.599Z,101379.95
2017-10-01T15:23:34.689Z,101372.08
2017-10-01T15:26:03.761Z,101365.19
2017-10-01T15:28:32.083Z,101366.67
2017-10-01T15:31:01.163Z,101365.37
2017-10-01T15:33:30.293Z,101363.20
2017-10-01T15:35:58.593Z,101364.05
2017-10-01T15:38:26.905Z,101371.02
2017-10-01T15:40:56.053Z,101370.52
2017-10-01T15:43:24.358Z,101361.64
2017-10-01T15:45:52.673Z,101373.37
2017-10-01T15:48:21.741Z,101367.95
2017-10-01T15:50:50.061Z,101372.52
2017-10-01T15:53:18.420Z,101370.09
2017-10-01T15:55:47.510Z,101373.20
2017-10-01T15:58:16.578Z,101372.37
2017-10-01T16:00:44.916Z,101375.93
2017-10-01T16:03:13.218Z,101379.33
2017-10-01T16:05:41.525Z,101380.64
2017-10-01T16:08:09.858Z,101376.56
2017-10-01T16:10:38.157Z,101372.62
2017-10-01T16:13:06.476Z,101367.17
2017-10-01T16:15:35.551Z,101365.59
2017-10-01T16:18:03.863Z,101375.13
2017-10-01T16:20:32.205Z,101368.03
2017-10-01T16:23:00.519Z,101365.80
2017-10-01T16:25:28.828Z,101355.93
2017-10-01T16:27:57.134Z,101361.38
2017-10-01T16:30:25.494Z,101361.17
2017-10-01T16:32:53.836Z,101354.24
2017-10-01T16:35:22.133Z,101358.13
2017-10-01T16:37:50.430Z,101361.02
2017-10-01T16:40:18.742Z,101357.34
2017-10-01T16:42:47.829Z,101365.53
2017-10-01T16:45:16.923Z,101364.68
2017-10-01T16:47:45.242Z,101365.42
2017-10-01T16:50:13.553Z,101370.86
2017-10-01T16:52:41.877Z,101359.02
2017-10-01T16:55:11.017Z,101366.14
2017-10-01T16:57:39.319Z,101365.77
2017-10-01T17:00:07.657Z,101359.44
2017-10-01T17:02:35.958Z,101367.06
2017-10-01T17:05:04.355Z,101373.55
2017-10-01T17:07:32.678Z,101368.24
2017-10-01T17:10:01.007Z,101366.56
2017-10-01T17:12:29.326Z,101376.81
2017-10-01T17:14:57.638Z,101380.62
2017-10-01T17:17:25.969Z,101383.62
2017-10-01T17:19:55.060Z,101385.94
2017-10-01T17:22:24.142Z,101383.43
2017-10-01T17:24:52.450Z,101386.06
2017-10-01T17:27:20.781Z,101372.88
2017-10-01T17:29:49.087Z,101384.82
2017-10-01T17:32:18.157Z,101387.07
2017-10-01T17:34:46.478Z,101389.95
2017-10-01T17:37:14.781Z,101383.44
2017-10-01T17:39:43.102Z,101390.01
2017-10-01T17:42:12.168Z,101382.00
2017-10-01T17:44:40.485Z,101389.35
2017-10-01T17:47:09.579Z,101384.01
2017-10-01T17:49:38.674Z,101383.94
2017-10-01T17:52:07.780Z,101378.41
2017-10-01T17:54:36.127Z,101376.03
2017-10-01T17:57:04.441Z,101378.18
2017-10-01T17:59:32.746Z,101380.72
2017-10-01T18:02:01.061Z,101384.52
2017-10-01T18:04:29.372Z,101382.89
2017-10-01T18:06:57.705Z,101388.84
2017-10-01T18:09:26.011Z,101380.58
2017-10-01T18:11:55.087Z,101380.16
2017-10-01T18:14:23.405Z,101374.98
2017-10-01T18:16:51.793Z,101373.05
2017-10-01T18:19:20.093Z,101374.19
2017-10-01T18:21:48.421Z,101374.70
2017-10-01T18:24:17.494Z,101369.71
2017-10-01T18:26:45.839Z,101369.22
2017-10-01T18:29:14.160Z,101372.58
2017-10-01T18:31:43.237Z,101374.37
2017-10-01T18:34:11.557Z,101372.32
2017-10-01T18:36:39.950Z,101368.06
2017-10-01T18:39:08.274Z,101367.04
2017-10-01T18:41:36.593Z,101371.34
2017-10-01T18:44:04.914Z,101369.59
2017-10-01T18:46:33.221Z,101362.94
2017-10-01T18:49:02.362Z,101347.52
2017-10-01T18:51:30.693Z,101367.78
2017-10-01T18:53:59.784Z,101368.10
2017-10-01T18:56:28.095Z,101361.46
2017-10-01T18:58:56.409Z,101362.00
2017-10-01T19:01:24.721Z,101365.52
2017-10-01T19:03:53.803Z,101362.26
2017-10-01T19:06:22.134Z,101361.44
2017-10-01T19:08:50.446Z,101356.63
2017-10-01T19:11:18.786Z,101358.23
2017-10-01T19:13:47.090Z,101348.28
2017-10-01T19:16:15.399Z,101349.78
2017-10-01T19:18:43.719Z,101356.51
2017-10-01T19:21:12.029Z,101352.20
2017-10-01T19:23:41.113Z,101357.12
2017-10-01T19:26:09.425Z,101358.20
2017-10-01T19:28:37.738Z,101356.75
2017-10-01T19:31:06.045Z,101338.34
2017-10-01T19:33:34.373Z,101346.05
2017-10-01T19:36:03.437Z,101347.01
2017-10-01T19:38:31.776Z,101337.68
2017-10-01T19:41:00.091Z,101343.79
2017-10-01T19:43:28.401Z,101344.53
2017-10-01T19:45:57.501Z,101345.86
2017-10-01T19:48:25.830Z,101348.42
2017-10-01T19:50:54.155Z,101348.02
2017-10-01T19:53:22.473Z,101345.33
2017-10-01T19:55:50.786Z,101348.30
2017-10-01T19:58:19.111Z,101335.80
2017-10-01T20:00:47.429Z,101344.88
2017-10-01T20:03:15.737Z,101334.98
2017-10-01T20:05:44.845Z,101338.16
2017-10-01T20:08:13.150Z,101341.70
2017-10-01T20:10:41.464Z,101342.81
2017-10-01T20:13:09.777Z,101340.25
2017-10-01T20:15:38.089Z,101341.86
2017-10-01T20:18:06.409Z,101341.66
2017-10-01T20:20:35.510Z,101344.87
2017-10-01T20:23:04.595Z,101342.09
2017-10-01T20:25:32.898Z,101335.74
2017-10-01T20:28:01.222Z,101333.59
2017-10-01T20:30:29.532Z,101331.11
2017-10-01T20:32:58.620Z,101337.95
2017-10-01T20:35:26.934Z,101335.55
2017-10-01T20:37:55.278Z,101348.36
2017-10-01T20:40:23.586Z,101344.91
2017-10-01T20:42:51.899Z,101340.15
2017-10-01T20:45:20.229Z,101343.91
2017-10-01T20:47:48.558Z,101336.39
2017-10-01T20:50:16.889Z,101337.78
2017-10-01T20:52:45.211Z,101340.03
2017-10-01T20:55:13.542Z,101341.55
2017-10-01T20:57:41.851Z,101336.61
2017-10-01T21:00:10.169Z,101335.01
2017-10-01T21:02:38.485Z,101324.90
2017-10-01T21:05:06.821Z,101315.33
2017-10-01T21:07:35.126Z,101315.81
2017-10-01T21:10:04.202Z,101328.90
2017-10-01T21:12:33.294Z,101331.00
2017-10-01T21:15:01.609Z,101313.42
2017-10-01T21:17:29.932Z,101306.01
2017-10-01T21:19:58.259Z,101297.87
2017-10-01T21:22:26.586Z,101302.09
2017-10-01T21:24:54.902Z,101314.44
2017-10-01T21:27:23.977Z,101319.19
2017-10-01T21:29:52.312Z,101301.23
2017-10-01T21:32:20.649Z,101291.71
2017-10-01T21:34:49.730Z,101286.88
2017-10-01T21:37:18.084Z,101296.94
2017-10-01T21:39:46.401Z,101308.52
2017-10-01T21:42:15.480Z,101308.34
2017-10-01T21:44:43.802Z,101306.33
2017-10-01T21:47:12.111Z,101301.33
2017-10-01T21:49:40.448Z,101299.27
2017-10-01T21:52:08.764Z,101294.17
2017-10-01T21:54:37.090Z,101292.60
2017-10-01T21:57:06.170Z,101290.97
2017-10-01T21:59:35.282Z,101283.03
2017-10-01T22:02:03.592Z,101271.94
2017-10-01T22:04:31.906Z,101259.09
2017-10-01T22:07:00.234Z,101266.67
2017-10-01T22:09:28.551Z,101261.53
2017-10-01T22:11:56.882Z,101267.70
2017-10-01T22:14:25.193Z,101268.75
2017-10-01T22:16:53.518Z,101248.69
2017-10-01T22:19:22.611Z,101240.26
2017-10-01T22:21:50.947Z,101239.23
2017-10-01T22:24:19.266Z,101246.67
2017-10-01T22:26:48.374Z,101249.70
2017-10-01T22:29:16.693Z,101249.31
2017-10-01T22:31:45.025Z,101242.31
2017-10-01T22:34:13.355Z,101235.95
2017-10-01T22:36:41.673Z,101231.21
2017-10-01T22:39:10.770Z,101237.14
2017-10-01T22:41:39.867Z,101243.64
2017-10-01T22:44:08.986Z,101245.84
2017-10-01T22:46:37.309Z,101237.17
2017-10-01T22:49:05.630Z,101228.95
2017-10-01T22:51:33.970Z,101220.16
2017-10-01T22:54:02.271Z,101210.59
2017-10-01T22:56:30.595Z,101211.11
2017-10-01T22:58:58.963Z,101214.77
2017-10-01T23:01:27.269Z,101218.73
2017-10-01T23:03:55.561Z,101221.16
2017-10-01T23:06:23.873Z,101219.16
2017-10-01T23:08:52.179Z,101208.72
2017-10-01T23:11:20.498Z,101198.30
2017-10-01T23:13:48.835Z,101199.86
2017-10-01T23:16:17.165Z,101195.15
2017-10-01T23:18:46.253Z,101190.03
2017-10-01T23:21:15.342Z,101190.75
2017-10-01T23:23:43.661Z,101189.92
2017-10-01T23:26:11.978Z,101183.84
2017-10-01T23:28:40.280Z,101184.45
2017-10-01T23:31:09.404Z,101182.56
2017-10-01T23:33:37.722Z,101184.47
2017-10-01T23:36:06.054Z,101170.28
2017-10-01T23:38:34.366Z,101169.56
2017-10-01T23:41:02.697Z,101171.12
2017-10-01T23:43:31.026Z,101170.08
2017-10-01T23:45:59.340Z,101162.34
2017-10-01T23:48:28.430Z,101169.82
2017-10-01T23:50:57.521Z,101160.73
2017-10-01T23:53:25.856Z,101160.41
2017-10-01T23:55:54.161Z,101160.33
2017-10-01T23:58:22.491Z,101159.18
